Latest Coastal Weather Observations for Cape Borda

IDS60701

Issued at 11:31 pm CST Sunday 25 September 2016 (issued every 10 minutes, with the page automatically refreshed every 10 minutes)

About coastal observations | Map of coastal stations | Coastal observations for SA | Marine services | Other Formats
Station Details ID: 022823 Name: CAPE BORDA Lat: -35.75 Lon: 136.60 Height: 158.0 m
Data from the previous 72 hours. | See also: Recent months at Cape Borda
Date/Time
CST
Temp
°C
Wind Pressure Rain since
9am
mm
Weather Cloud Vis
km
Sea
Height
m
Swell
Dir  Spd
kts
Gust
kts
hPa Trend Height
m
Period
s
Dir
25/11:30pm 11.8 WNW 14 19 1012.9 - 0.6 - - - - - - -
25/11:00pm 11.9 NW 14 20 1013.2 - 0.6 - - - - - - -
25/10:30pm 11.7 WNW 13 20 1013.6 - 0.6 - - - - - - -
25/10:00pm 11.3 NW 12 16 1013.7 - 0.6 - - - - - - -
25/09:30pm 10.9 NW 13 19 1013.8 - 0.6 - - - - - - -
25/09:00pm 10.9 NW 12 19 1014.0 - 0.4 - - - - - - -
25/08:30pm 10.8 WNW 10 13 1013.8 - 0.0 - - - - - - -
25/08:00pm 11.8 NW 13 20 1013.6 - 0.0 - - - - - - -
25/07:30pm 11.1 WNW 10 14 1013.5 - 0.0 - - - - - - -
25/07:00pm 11.5 WNW 11 17 1013.2 - 0.0 - - - - - - -
25/06:30pm 11.4 WNW 12 17 1013.1 - 0.0 - - - - - - -
25/06:00pm 11.3 WNW 13 16 1013.1 - 0.0 - - - - - - -
25/05:30pm 12.1 WNW 9 14 1012.9 - 0.0 - - - - - - -
25/05:00pm 12.2 WNW 8 11 1012.9 - 0.0 - - - - - - -
25/04:30pm 12.3 W 10 13 1012.8 - 0.0 - - - - - - -
25/04:00pm 13.6 WNW 12 17 1012.7 - 0.0 - - - - - - -
25/03:30pm 12.4 WNW 12 16 1012.8 - 0.0 - - - - - - -
25/03:00pm 13.1 NW 12 16 1012.9 F 0.0 Distant precip. Mostly cloudy 25 <0.5 5.0 8 SW
25/02:30pm 13.8 NW 12 15 1012.9 - 0.0 - - - - - - -
25/02:00pm 12.2 NW 9 11 1013.2 - 0.0 - - - - - - -
25/01:30pm 13.3 WNW 8 11 1013.5 - 0.0 - - - - - - -
25/01:00pm 13.5 WNW 7 10 1013.8 - 0.0 - - - - - - -
25/12:30pm 12.2 W 11 15 1014.0 - 0.0 - - - - - - -
25/12:00pm 13.7 W 10 13 1014.3 - 0.0 - - - - - - -
25/11:30am 13.4 W 11 13 1014.5 - 0.0 - - - - - - -
25/11:00am 13.4 W 10 13 1014.5 - 0.0 - - - - - - -
25/10:30am 13.1 NW 9 12 1014.6 - 0.0 - - - - - - -
25/10:00am 12.9 W 8 11 1014.9 - 0.0 - - - - - - -
25/09:30am 12.0 W 9 11 1014.7 - 0.0 - - - - - - -
25/09:00am 12.3 W 9 12 1014.8 R 0.8 Distant precip. Mostly cloudy 20 <0.5 4.9 8 SW
25/08:30am 11.6 WSW 9 11 1014.7 - 0.8 - - - - - - -
25/08:00am 10.2 SW 8 11 1014.7 - 0.8 - - - - - - -
25/07:30am 9.0 W 12 16 1014.8 - 0.8 - - - - - - -
25/07:08am 9.4 W 16 22 1014.5 - 0.6 - - - - - - -
25/07:00am 10.3 WSW 8 11 1014.3 - 0.6 - - - - - - -
25/06:30am 10.3 WSW 9 14 1013.8 - 0.6 - - - - - - -
25/06:00am 9.9 WSW 10 14 1013.7 - 0.6 - - - - - - -
25/05:30am 9.5 WSW 9 12 1013.4 - 0.6 - - - - - - -
25/05:00am 9.9 WSW 12 19 1013.0 - 0.6 - - - - - - -
25/04:30am 9.8 SW 11 16 1012.5 - 0.6 - - - - - - -
25/04:00am 10.0 WSW 10 14 1012.2 - 0.6 - - - - - - -
25/03:30am 9.8 WSW 11 15 1012.2 - 0.6 - - - - - - -
25/03:00am 9.8 WSW 11 15 1012.2 - 0.6 - - - - - - -
25/02:30am 10.0 W 12 17 1012.2 - 0.6 - - - - - - -
25/02:00am 9.9 SW 11 16 1012.2 - 0.6 - - - - - - -
25/01:30am 10.4 WSW 13 20 1012.2 - 0.6 - - - - - - -
25/01:00am 10.2 WSW 14 21 1012.4 - 0.6 - - - - - - -
25/12:30am 10.3 WSW 12 18 1012.5 - 0.6 - - - - - - -
25/12:00am 9.9 WSW 11 18 1012.5 - 0.6 - - - - - - -
 
Date/Time
CST
Temp
°C
Wind Pressure Rain since
9am
mm
Weather Cloud Vis
km
Sea
Height
m
Swell
Dir  Spd
kts
Gust
kts
hPa Trend Height
m
Period
s
Dir
24/11:30pm 9.5 WSW 11 15 1012.4 - 0.6 - - - - - - -
24/11:00pm 9.5 SW 14 20 1012.5 - 0.6 - - - - - - -
24/10:42pm 8.8 SW 15 25 1012.6 - 0.6 - - - - - - -
24/10:30pm 9.7 WSW 18 27 1012.3 - 0.6 - - - - - - -
24/10:25pm 10.3 WSW 16 27 1012.2 - 0.6 - - - - - - -
24/10:00pm 10.0 SW 14 19 1012.3 - 0.6 - - - - - - -
24/09:30pm 9.8 WSW 13 18 1012.3 - 0.6 - - - - - - -
24/09:00pm 10.3 SW 12 19 1012.4 - 0.6 - - - - - - -
24/08:30pm 10.6 WSW 15 21 1012.0 - 0.6 - - - - - - -
24/08:00pm 10.6 WSW 15 21 1011.6 - 0.6 - - - - - - -
24/07:30pm 10.6 SW 14 19 1011.1 - 0.6 - - - - - - -
24/07:00pm 10.5 WSW 17 23 1010.7 - 0.6 - - - - - - -
24/06:30pm 10.3 SW 13 19 1010.4 - 0.6 - - - - - - -
24/06:00pm 11.0 SW 14 21 1010.0 - 0.6 - - - - - - -
24/05:30pm 11.5 SW 15 19 1009.5 - 0.6 - - - - - - -
24/05:00pm 12.3 SW 15 22 1009.0 - 0.6 - - - - - - -
24/04:30pm 12.5 SW 17 23 1008.6 - 0.6 - - - - - - -
24/04:00pm 13.0 SW 15 21 1008.2 - 0.6 - - - - - - -
24/03:30pm 13.5 SW 17 24 1007.6 - 0.6 - - - - - - -
24/03:00pm 13.5 SW 18 25 1007.5 R 0.6 Haze Partly cloudy 15 2 3.5 7 SW
24/02:30pm 14.0 SW 16 24 1007.0 - 0.6 - - - - - - -
24/02:00pm 14.1 SW 17 24 1006.7 - 0.6 - - - - - - -
24/01:30pm 14.0 SW 17 23 1006.6 - 0.6 - - - - - - -
24/01:00pm 14.3 SW 17 23 1006.5 - 0.6 - - - - - - -
24/12:30pm 13.9 SW 17 23 1006.6 - 0.6 - - - - - - -
24/12:00pm 12.2 SW 14 19 1006.6 - 0.4 - - - - - - -
24/11:32am 11.4 SW 15 25 1006.5 - 0.2 - - - - - - -
24/11:30am 11.4 SW 16 25 1006.5 - 0.2 - - - - - - -
24/11:00am 12.9 SW 14 22 1006.3 - 0.0 - - - - - - -
24/10:30am 14.0 SW 15 19 1006.1 - 0.0 - - - - - - -
24/10:00am 13.7 SW 14 17 1005.9 - 0.0 - - - - - - -
24/09:30am 12.8 SW 11 16 1006.0 - 0.0 - - - - - - -
24/09:00am 12.3 SSW 13 19 1005.7 R 0.0 Haze Cloudy 15 1 3.5 6 SW
24/08:30am 11.7 SW 15 21 1005.3 - 0.0 - - - - - - -
24/08:00am 11.8 SW 12 19 1004.7 - 0.0 - - - - - - -
24/07:30am 11.9 SW 15 19 1004.4 - 0.0 - - - - - - -
24/07:00am 11.7 SW 13 19 1004.1 - 0.0 - - - - - - -
24/06:30am 12.2 SW 15 20 1003.6 - 0.0 - - - - - - -
24/06:00am 12.8 WSW 12 19 1003.3 - 0.0 - - - - - - -
24/05:30am 12.6 SW 11 16 1002.7 - 0.0 - - - - - - -
24/05:00am 13.0 WSW 13 17 1002.2 - 0.0 - - - - - - -
24/04:30am 13.5 W 8 12 1002.4 - 0.0 - - - - - - -
24/04:00am 14.5 NNW 10 16 1002.2 - 0.0 - - - - - - -
24/03:30am 13.5 NNE 8 13 1001.8 - 0.0 - - - - - - -
24/03:00am 13.3 NE 8 10 1001.9 - 0.0 - - - - - - -
24/02:30am 13.6 NE 9 11 1002.4 - 0.0 - - - - - - -
24/02:00am 13.6 NE 8 10 1002.9 - 0.0 - - - - - - -
24/01:30am 13.8 NE 8 11 1003.6 - 0.0 - - - - - - -
24/01:00am 13.4 NE 9 12 1003.6 - 0.0 - - - - - - -
24/12:30am 14.0 NE 10 12 1003.6 - 0.0 - - - - - - -
24/12:00am 14.1 NE 9 12 1004.0 - 0.0 - - - - - - -
 
Date/Time
CST
Temp
°C
Wind Pressure Rain since
9am
mm
Weather Cloud Vis
km
Sea
Height
m
Swell
Dir  Spd
kts
Gust
kts
hPa Trend Height
m
Period
s
Dir
23/11:30pm 14.3 NE 10 14 1004.3 - 0.0 - - - - - - -
23/11:00pm 14.6 NE 11 14 1004.8 - 0.0 - - - - - - -
23/10:30pm 14.8 NE 14 19 1004.6 - 0.0 - - - - - - -
23/10:00pm 14.7 NE 15 21 1004.6 - 0.0 - - - - - - -
23/09:30pm 14.8 ENE 15 22 1004.7 - 0.0 - - - - - - -
23/09:00pm 15.4 ENE 16 26 1004.9 - 0.0 - - - - - - -
23/08:30pm 15.1 ENE 15 22 1005.0 - 0.0 - - - - - - -
23/08:00pm 14.6 ENE 14 18 1005.3 - 0.0 - - - - - - -
23/07:30pm 14.6 ENE 15 20 1005.3 - 0.0 - - - - - - -
23/07:00pm 14.5 NE 14 20 1005.3 - 0.0 - - - - - - -
23/06:30pm 14.5 ENE 16 23 1004.8 - 0.0 - - - - - - -
23/06:00pm 14.8 ENE 15 21 1004.7 - 0.0 - - - - - - -
23/05:30pm 15.2 ENE 16 23 1004.4 - 0.0 - - - - - - -
23/05:00pm 15.3 ENE 17 22 1004.6 - 0.0 - - - - - - -
23/04:30pm 15.8 NE 16 22 1005.1 - 0.0 - - - - - - -
23/04:00pm 16.1 NE 16 23 1005.5 - 0.0 - - - - - - -
23/03:30pm 16.1 NE 17 22 1005.5 - 0.0 - - - - - - -
23/03:00pm 15.9 NE 16 20 1005.9 F 0.0 Fine Mostly clear 20 2 2.4 6 SW
23/02:30pm 16.0 NNE 14 20 1006.3 - 0.0 - - - - - - -
23/02:00pm 15.6 NNE 15 23 1006.8 - 0.0 - - - - - - -
23/01:30pm 15.5 NNE 16 22 1007.6 - 0.0 - - - - - - -
23/01:00pm 15.5 NNE 17 24 1008.1 - 0.0 - - - - - - -
23/12:30pm 15.6 NNE 16 22 1008.7 - 0.0 - - - - - - -
23/12:00pm 15.4 NNE 15 22 1009.2 - 0.0 - - - - - - -
23/11:30am 15.2 NNE 15 22 1009.7 - 0.0 - - - - - - -
23/11:00am 14.6 NNE 17 23 1010.1 - 0.0 - - - - - - -
23/10:30am 13.8 NNE 16 22 1010.6 - 0.0 - - - - - - -
23/10:00am 13.3 NNE 16 21 1011.1 - 0.0 - - - - - - -
23/09:30am 12.0 NNE 16 24 1011.3 - 0.0 - - - - - - -
23/09:00am 11.9 NE 16 22 1011.5 F 0.0 Haze Mostly cloudy 18 1 3.3 7 SW
23/08:30am 12.0 NNE 16 21 1011.4 - 0.0 - - - - - - -
23/08:00am 11.9 NNE 15 22 1011.8 - 0.0 - - - - - - -
23/07:30am 11.6 NE 17 25 1011.8 - 0.0 - - - - - - -
23/07:00am 11.2 NE 18 25 1011.8 - 0.0 - - - - - - -
23/06:30am 10.8 NE 19 27 1011.7 - 0.0 - - - - - - -
23/06:00am 10.7 NE 19 25 1012.0 - 0.0 - - - - - - -
23/05:37am 10.6 NE 17 27 1012.1 - 0.0 - - - - - - -
23/05:30am 10.4 NE 16 23 1012.1 - 0.0 - - - - - - -
23/05:00am 10.4 NE 16 22 1012.4 - 0.0 - - - - - - -
23/04:30am 10.3 NE 17 23 1012.7 - 0.0 - - - - - - -
23/04:00am 10.2 NE 17 23 1013.0 - 0.0 - - - - - - -
23/03:30am 10.2 NE 17 24 1013.4 - 0.0 - - - - - - -
23/03:00am 10.1 NE 14 22 1014.1 - 0.0 - - - - - - -
23/02:30am 10.1 NNE 14 19 1014.9 - 0.0 - - - - - - -
23/02:00am 10.0 NNE 13 19 1015.5 - 0.0 - - - - - - -
23/01:30am 10.0 NNE 14 19 1015.9 - 0.0 - - - - - - -
23/01:00am 10.2 NNE 13 18 1016.1 - 0.0 - - - - - - -
23/12:30am 10.3 NNE 13 19 1016.1 - 0.0 - - - - - - -
23/12:00am 10.3 NNE 13 18 1016.4 - 0.0 - - - - - - -

Other Formats:

Comma delimited format used in spreadsheet applications
http://www.bom.gov.au/fwo/IDS60701/IDS60701.95805.axf

JavaScript Object Notation format (JSON) in row-major order
http://www.bom.gov.au/fwo/IDS60701/IDS60701.95805.json